createdAt,value
2022-07-27T00:04:47.348Z,24.30
2022-07-27T00:09:49.656Z,24.30
2022-07-27T00:14:51.940Z,24.20
2022-07-27T00:19:54.265Z,24.20
2022-07-27T00:24:56.529Z,24.10
2022-07-27T00:29:58.852Z,24.10
2022-07-27T00:35:01.071Z,24.00
2022-07-27T00:40:05.135Z,24.00
2022-07-27T00:45:07.961Z,24.00
2022-07-27T00:50:10.993Z,24.00
2022-07-27T00:55:13.770Z,24.00
2022-07-27T01:00:17.005Z,24.00
2022-07-27T01:05:20.417Z,23.90
2022-07-27T01:10:23.635Z,23.80
2022-07-27T01:15:25.988Z,23.80
2022-07-27T01:20:28.232Z,23.80
2022-07-27T01:25:30.507Z,23.80
2022-07-27T01:30:33.265Z,23.90
2022-07-27T01:35:37.325Z,23.90
2022-07-27T01:40:40.024Z,23.80
2022-07-27T01:45:42.356Z,23.80
2022-07-27T01:50:46.211Z,23.80
2022-07-27T01:55:51.240Z,23.70
2022-07-27T02:00:53.754Z,23.70
2022-07-27T02:05:56.011Z,23.70
2022-07-27T02:11:18.502Z,23.70
2022-07-27T02:16:20.960Z,23.70
2022-07-27T02:21:26.829Z,23.70
2022-07-27T02:26:29.145Z,23.70
2022-07-27T02:31:33.069Z,23.70
2022-07-27T02:36:35.526Z,23.70
2022-07-27T02:41:37.764Z,23.60
2022-07-27T02:46:40.460Z,23.60
2022-07-27T02:51:42.787Z,23.60
2022-07-27T02:56:45.488Z,23.60
2022-07-27T03:01:49.027Z,23.60
2022-07-27T03:06:51.469Z,23.50
2022-07-27T03:11:53.731Z,23.60
2022-07-27T03:16:56.037Z,23.50
2022-07-27T03:21:58.320Z,23.50
2022-07-27T03:27:00.573Z,23.50
2022-07-27T03:32:02.837Z,23.60
2022-07-27T03:37:05.094Z,23.50
2022-07-27T03:42:07.510Z,23.50
2022-07-27T03:47:09.973Z,23.60
2022-07-27T03:52:17.484Z,23.60
2022-07-27T03:57:20.192Z,23.60
2022-07-27T04:02:22.608Z,23.70
2022-07-27T04:07:24.914Z,23.70
2022-07-27T04:12:27.243Z,23.80
2022-07-27T04:17:53.267Z,23.90
2022-07-27T04:22:52.023Z,23.90
2022-07-27T04:27:54.861Z,24.00
2022-07-27T04:32:57.243Z,24.10
2022-07-27T04:37:59.965Z,24.20
2022-07-27T04:43:04.084Z,24.30
2022-07-27T04:48:09.329Z,24.40
2022-07-27T04:53:12.891Z,24.50
2022-07-27T04:58:15.523Z,24.60
2022-07-27T05:17:59.108Z,24.70
2022-07-27T05:23:22.605Z,24.90
2022-07-27T05:28:24.881Z,24.90
2022-07-27T05:33:27.193Z,25.10
2022-07-27T05:38:29.512Z,25.30
2022-07-27T05:43:31.756Z,25.40
2022-07-27T05:48:34.079Z,25.60
2022-07-27T05:53:36.671Z,25.70
2022-07-27T05:58:39.036Z,25.80
2022-07-27T06:03:41.331Z,26.00
2022-07-27T06:08:44.840Z,26.20
2022-07-27T06:13:47.380Z,26.40
2022-07-27T06:18:49.929Z,26.00
2022-07-27T06:23:53.709Z,25.80
2022-07-27T06:28:58.957Z,25.80
2022-07-27T06:34:02.071Z,25.90
2022-07-27T06:39:04.505Z,25.70
2022-07-27T06:44:07.027Z,25.70
2022-07-27T06:49:10.141Z,25.80
2022-07-27T06:54:12.768Z,25.90
2022-07-27T06:59:15.469Z,26.10
2022-07-27T07:04:18.173Z,26.50
2022-07-27T07:09:27.011Z,26.70
2022-07-27T07:14:29.403Z,26.60
2022-07-27T07:19:32.136Z,26.80
2022-07-27T07:24:34.432Z,26.80
2022-07-27T07:29:37.084Z,27.10
2022-07-27T07:34:39.323Z,27.20
2022-07-27T07:39:41.629Z,27.60
2022-07-27T08:42:53.922Z,26.70
2022-07-27T08:48:17.947Z,26.70
2022-07-27T08:53:22.178Z,26.40
2022-07-27T08:58:24.524Z,26.50
2022-07-27T09:03:27.196Z,26.30
2022-07-27T09:08:31.639Z,26.50
2022-07-27T09:13:34.531Z,26.80
2022-07-27T09:18:38.682Z,26.50
2022-07-27T09:29:01.477Z,26.50
2022-07-27T09:34:03.906Z,26.40
2022-07-27T09:39:07.032Z,26.00
2022-07-27T09:44:31.107Z,25.70
2022-07-27T09:49:34.384Z,25.70
2022-07-27T09:54:46.734Z,25.90
2022-07-27T09:59:49.080Z,25.80
2022-07-27T10:04:51.543Z,25.80
2022-07-27T10:09:54.957Z,25.40
2022-07-27T10:14:57.660Z,25.60
2022-07-27T10:20:03.997Z,25.50
2022-07-27T10:25:06.756Z,25.40
2022-07-27T10:30:09.936Z,25.50
2022-07-27T10:35:32.834Z,25.50
2022-07-27T10:40:35.238Z,25.60
2022-07-27T10:45:50.480Z,25.60
2022-07-27T10:51:05.828Z,25.10
2022-07-27T10:56:09.821Z,25.00
2022-07-27T11:01:15.795Z,25.00
2022-07-27T11:07:04.966Z,25.30
2022-07-27T11:11:48.642Z,25.70
2022-07-27T11:16:55.879Z,25.50
2022-07-27T11:22:04.495Z,25.90
2022-07-27T11:27:16.971Z,25.60
2022-07-27T11:32:21.652Z,25.90
2022-07-27T11:37:24.137Z,25.50
2022-07-27T11:42:38.312Z,25.10
2022-07-27T11:47:41.500Z,25.30
2022-07-27T11:52:43.803Z,25.40
2022-07-27T11:57:46.051Z,25.30
2022-07-27T12:02:50.199Z,25.20
2022-07-27T12:07:54.435Z,25.60
2022-07-27T12:12:56.698Z,25.40
2022-07-27T12:17:59.061Z,25.10
2022-07-27T12:23:07.356Z,25.40
2022-07-27T12:28:13.597Z,25.40
2022-07-27T12:33:37.135Z,25.40
2022-07-27T12:38:44.426Z,24.90
2022-07-27T12:49:16.903Z,25.10
2022-07-27T12:54:19.517Z,25.20
2022-07-27T12:59:23.580Z,25.30
2022-07-27T13:04:26.185Z,25.20
2022-07-27T13:10:02.172Z,25.20
2022-07-27T13:14:51.385Z,25.00
2022-07-27T13:19:53.662Z,25.10
2022-07-27T13:24:55.926Z,25.60
2022-07-27T13:29:59.943Z,25.60
2022-07-27T13:35:02.797Z,25.50
2022-07-27T13:40:05.943Z,25.00
2022-07-27T13:45:10.927Z,25.20
2022-07-27T13:50:19.401Z,25.20
2022-07-27T13:55:27.685Z,25.10
2022-07-27T14:00:30.361Z,25.20
2022-07-27T14:05:32.628Z,24.90
2022-07-27T14:10:41.861Z,24.80
2022-07-27T14:15:50.601Z,24.80
2022-07-27T14:21:00.331Z,25.00
2022-07-27T14:26:05.322Z,24.70
2022-07-27T14:31:10.257Z,24.50
2022-07-27T14:36:13.437Z,24.60
2022-07-27T14:41:16.342Z,24.90
2022-07-27T14:46:18.741Z,24.70
2022-07-27T14:51:21.130Z,24.80
2022-07-27T14:56:23.426Z,24.90
2022-07-27T15:01:25.973Z,24.90
2022-07-27T15:06:28.337Z,25.00
2022-07-27T15:11:30.677Z,24.70
2022-07-27T15:16:33.507Z,24.60
2022-07-27T15:21:35.880Z,24.70
2022-07-27T15:26:38.144Z,24.60
2022-07-27T15:31:40.503Z,24.60
2022-07-27T15:36:47.182Z,24.50
2022-07-27T15:57:28.217Z,24.00
2022-07-27T16:02:31.082Z,24.30
2022-07-27T16:07:41.632Z,24.20
2022-07-27T16:12:44.360Z,24.10
2022-07-27T16:17:46.629Z,24.20
2022-07-27T16:22:48.922Z,24.40
2022-07-27T16:27:51.201Z,24.40
2022-07-27T16:32:53.494Z,24.40
2022-07-27T16:37:56.245Z,24.40
2022-07-27T16:42:58.509Z,24.50
2022-07-27T16:48:01.339Z,24.20
2022-07-27T16:53:03.674Z,24.10
2022-07-27T16:58:06.004Z,24.10
2022-07-27T17:03:08.448Z,24.00
2022-07-27T17:08:11.746Z,23.80
2022-07-27T17:13:14.175Z,23.70
2022-07-27T17:18:17.491Z,23.90
2022-07-27T17:23:19.756Z,23.90
2022-07-27T17:28:22.032Z,23.80
2022-07-27T17:33:24.328Z,24.00
2022-07-27T17:38:28.284Z,23.90
2022-07-27T17:43:30.580Z,23.60
2022-07-27T17:48:33.062Z,23.60
2022-07-27T17:53:35.405Z,23.70
2022-07-27T17:58:38.444Z,23.70
2022-07-27T18:03:41.955Z,23.90
2022-07-27T18:08:44.938Z,23.80
2022-07-27T18:13:47.287Z,23.80
2022-07-27T18:18:49.588Z,23.70
2022-07-27T18:23:51.924Z,23.70
2022-07-27T18:28:55.182Z,23.50
2022-07-27T18:33:57.526Z,23.30
2022-07-27T18:38:59.844Z,23.20
2022-07-27T18:44:02.147Z,23.50
2022-07-27T18:49:05.083Z,23.50
2022-07-27T18:54:07.463Z,23.50
2022-07-27T18:59:09.874Z,23.70
2022-07-27T19:04:15.735Z,23.60
2022-07-27T19:09:18.839Z,23.70
2022-07-27T19:14:23.083Z,23.90
2022-07-27T19:19:25.712Z,23.80
2022-07-27T19:24:28.220Z,23.50
2022-07-27T19:29:30.619Z,23.60
2022-07-27T19:34:32.970Z,23.70
2022-07-27T19:39:58.541Z,23.80
2022-07-27T19:44:58.695Z,24.00
2022-07-27T19:50:01.821Z,24.20
2022-07-27T19:55:06.485Z,24.20
2022-07-27T20:00:10.100Z,24.00
2022-07-27T20:05:12.442Z,23.80
2022-07-27T20:10:15.643Z,23.40
2022-07-27T20:15:17.957Z,23.40
2022-07-27T20:20:20.361Z,23.40
2022-07-27T20:25:23.383Z,23.60
2022-07-27T20:30:26.379Z,23.80
2022-07-27T20:35:35.270Z,24.00
2022-07-27T20:40:40.460Z,24.20
2022-07-27T20:45:42.929Z,24.10
2022-07-27T20:50:45.231Z,23.90
2022-07-27T20:55:48.233Z,23.90
2022-07-27T21:00:50.816Z,24.30
2022-07-27T21:05:53.184Z,24.30
2022-07-27T21:10:55.538Z,24.50
2022-07-27T21:15:57.826Z,24.50
2022-07-27T21:21:00.158Z,24.60
2022-07-27T21:26:02.479Z,24.70
2022-07-27T21:31:04.803Z,24.90
2022-07-27T21:36:07.770Z,24.70
2022-07-27T21:41:10.025Z,24.30
2022-07-27T21:46:12.340Z,24.10
2022-07-27T21:51:18.254Z,24.20
2022-07-27T21:56:20.533Z,24.30
2022-07-27T22:01:22.912Z,24.30
2022-07-27T22:06:25.204Z,24.20
2022-07-27T22:11:27.448Z,24.00
2022-07-27T22:16:29.821Z,24.10
2022-07-27T22:21:32.119Z,23.80
2022-07-27T22:26:34.397Z,23.40
2022-07-27T22:31:36.712Z,23.10
2022-07-27T22:36:39.391Z,22.90
2022-07-27T22:41:41.648Z,23.00
2022-07-27T22:46:43.899Z,23.00
2022-07-27T22:51:49.867Z,22.90
2022-07-27T22:56:55.223Z,22.90
2022-07-27T23:01:58.036Z,22.60
2022-07-27T23:07:00.602Z,22.60
2022-07-27T23:12:03.693Z,22.60
2022-07-27T23:17:05.977Z,22.80
2022-07-27T23:22:11.380Z,22.90
2022-07-27T23:27:13.908Z,22.80
2022-07-27T23:32:16.176Z,22.80
2022-07-27T23:37:18.501Z,22.90
2022-07-27T23:42:20.860Z,22.90
2022-07-27T23:47:23.598Z,22.90
2022-07-27T23:52:25.896Z,22.80
2022-07-27T23:57:28.416Z,22.70
